Time;durP1;ratioP1;P1;durP2;ratioP2;P2;SDS_P1;SDS_P2;PMS_P1;PMS_P2;Temp;Humidity;BMP_temperature;BMP_pressure;BME280_temperature;BME280_humidity;BME280_pressure;Samples;Min_cycle;Max_cycle;Signal;HPM_P1;HPM_P2
2023/04/20 00:00:44;;;;;;;;;;;;;;;26.69;41.05;93897.22;5030986;28;7213;-62
2023/04/20 00:03:29;;;;;;;;;;;;;;;26.68;40.98;93893.75;5026348;28;7222;-62
2023/04/20 00:06:01;;;;;;;;;;;;;;;26.72;41.05;93896.16;5024707;28;7264;-62
2023/04/20 00:08:29;;;;;;;;;;;;;;;26.72;41.54;93888.66;5040263;28;7105;-63
2023/04/20 00:11:28;;;;;;;;;;;;;;;26.71;41.49;93886.41;5031525;28;7037;-62
2023/04/20 00:13:54;;;;;;;;;;;;;;;26.69;41.38;93883.44;4955658;28;7687;-62
2023/04/20 00:16:31;;;;;;;;;;;;;;;26.68;41.03;93868.16;4955502;28;7089;-62
2023/04/20 00:19:11;;;;;;;;;;;;;;;26.65;41.28;93872.72;4959014;28;7228;-62
2023/04/20 00:21:40;;;;;;;;;;;;;;;26.66;41.21;93867.97;4957995;28;7035;-63
2023/04/20 00:24:56;;;;;;;;;;;;;;;26.66;41.20;93871.47;4956728;28;8989;-62
2023/04/20 00:27:24;;;;;;;;;;;;;;;26.64;41.06;93856.72;4895917;29;9130;-63
2023/04/20 00:29:50;;;;;;;;;;;;;;;26.63;41.58;93853.19;4886256;29;9330;-62
2023/04/20 00:32:29;;;;;;;;;;;;;;;26.64;41.05;93856.72;4880647;29;9069;-62
2023/04/20 00:35:20;;;;;;;;;;;;;;;26.65;41.01;93847.16;4883847;29;7465;-62
2023/04/20 00:38:15;;;;;;;;;;;;;;;26.63;41.40;93847.69;4896155;29;8767;-62
2023/04/20 00:40:47;;;;;;;;;;;;;;;26.63;41.33;93836.66;4879347;29;9027;-62
2023/04/20 00:43:14;;;;;;;;;;;;;;;26.63;41.15;93841.41;4895962;29;9225;-62
2023/04/20 00:45:53;;;;;;;;;;;;;;;26.63;41.33;93830.38;4880519;29;7048;-63
2023/04/20 00:48:37;;;;;;;;;;;;;;;26.65;41.07;93828.59;4880067;29;7075;-62
2023/04/20 00:51:04;;;;;;;;;;;;;;;26.64;41.16;93818.09;4933560;28;7055;-62
2023/04/20 00:53:48;;;;;;;;;;;;;;;26.64;40.94;93810.53;4965203;28;7623;-62
2023/04/20 00:56:24;;;;;;;;;;;;;;;26.62;41.22;93807.56;4968077;28;7065;-63
2023/04/20 00:58:50;;;;;;;;;;;;;;;26.60;41.25;93807.38;4947054;28;9184;-63
2023/04/20 01:01:21;;;;;;;;;;;;;;;26.63;41.12;93805.56;4976060;28;9310;-63
2023/04/20 01:04:08;;;;;;;;;;;;;;;26.64;41.70;93809.81;5041012;28;8896;-63
2023/04/20 01:06:38;;;;;;;;;;;;;;;26.64;41.42;93801.53;5055004;28;7273;-63
2023/04/20 01:09:08;;;;;;;;;;;;;;;26.64;40.72;93799.50;5027291;28;7205;-63
2023/04/20 01:11:43;;;;;;;;;;;;;;;26.64;41.23;93796.03;5032378;28;7266;-63
2023/04/20 01:14:09;;;;;;;;;;;;;;;26.65;40.86;93794.72;5032254;28;8928;-63
2023/04/20 01:16:36;;;;;;;;;;;;;;;26.64;41.57;93790.50;5035023;28;7535;-62
2023/04/20 01:19:20;;;;;;;;;;;;;;;26.65;41.08;93784.44;5036656;28;7018;-63
2023/04/20 01:21:55;;;;;;;;;;;;;;;26.65;41.27;93784.44;5068887;28;8780;-63
2023/04/20 01:24:34;;;;;;;;;;;;;;;26.65;41.21;93780.94;5034760;28;8955;-62
2023/04/20 01:27:00;;;;;;;;;;;;;;;26.64;40.84;93782.22;5051997;28;9421;-63
2023/04/20 01:29:35;;;;;;;;;;;;;;;26.63;41.01;93778.72;5035920;28;9061;-63
2023/04/20 01:32:05;;;;;;;;;;;;;;;26.64;40.66;93776.72;5056854;28;7279;-63
2023/04/20 01:35:11;;;;;;;;;;;;;;;26.64;41.19;93771.91;5030219;28;6990;-62
2023/04/20 01:37:47;;;;;;;;;;;;;;;26.64;41.31;93765.69;5050369;28;9646;-63
2023/04/20 01:40:22;;;;;;;;;;;;;;;26.66;40.92;93769.41;5035311;28;7308;-63
2023/04/20 01:42:47;;;;;;;;;;;;;;;26.66;41.25;93768.66;5023494;28;8842;-63
2023/04/20 01:45:21;;;;;;;;;;;;;;;26.64;41.37;93769.16;5035918;28;7254;-62
2023/04/20 01:48:13;;;;;;;;;;;;;;;26.66;40.91;93771.41;5055345;28;9076;-63
2023/04/20 01:50:39;;;;;;;;;;;;;;;26.66;40.85;93765.88;5031584;28;7983;-63
2023/04/20 01:53:05;;;;;;;;;;;;;;;26.64;41.69;93758.13;5028777;28;7025;-62
2023/04/20 01:55:33;;;;;;;;;;;;;;;26.66;41.15;93746.56;5060495;28;7844;-63
2023/04/20 01:58:13;;;;;;;;;;;;;;;26.66;40.99;93739.06;5035627;28;8994;-62
2023/04/20 02:00:42;;;;;;;;;;;;;;;26.65;41.56;93743.06;5066203;28;9654;-62
2023/04/20 02:03:47;;;;;;;;;;;;;;;26.68;40.79;93744.03;5024739;28;7197;-62
2023/04/20 02:06:15;;;;;;;;;;;;;;;26.65;41.20;93740.31;5015559;28;8713;-62
2023/04/20 02:08:43;;;;;;;;;;;;;;;26.66;41.18;93744.56;5022102;28;7293;-63
2023/04/20 02:11:09;;;;;;;;;;;;;;;26.65;41.12;93736.81;5027013;28;9120;-62
2023/04/20 02:13:44;;;;;;;;;;;;;;;26.68;41.23;93738.50;5029121;28;7419;-62
2023/04/20 02:16:14;;;;;;;;;;;;;;;26.68;41.06;93727.47;5020718;28;7035;-62
2023/04/20 02:18:49;;;;;;;;;;;;;;;26.65;40.93;93723.75;5026669;28;7948;-62
2023/04/20 02:21:27;;;;;;;;;;;;;;;26.64;40.97;93733.31;5023888;28;9450;-62
2023/04/20 02:23:58;;;;;;;;;;;;;;;26.65;41.27;93725.78;5058831;28;9063;-62
2023/04/20 02:26:23;;;;;;;;;;;;;;;26.62;41.29;93718.59;5031345;28;7072;-63
2023/04/20 02:28:50;;;;;;;;;;;;;;;26.63;40.98;93709.75;5027494;28;7277;-62
2023/04/20 02:31:21;;;;;;;;;;;;;;;26.66;40.72;93705.19;5021433;28;8320;-62
2023/04/20 02:33:50;;;;;;;;;;;;;;;26.65;41.24;93703.72;5031358;28;9125;-63
2023/04/20 02:36:16;;;;;;;;;;;;;;;26.66;40.99;93692.16;5033613;28;9083;-62
2023/04/20 02:38:42;;;;;;;;;;;;;;;26.66;40.99;93691.41;5011466;28;7417;-63
2023/04/20 02:41:09;;;;;;;;;;;;;;;26.65;41.07;93689.91;5022510;28;7469;-62
2023/04/20 02:43:37;;;;;;;;;;;;;;;26.63;40.51;93686.94;5064968;28;7040;-63
2023/04/20 02:46:07;;;;;;;;;;;;;;;26.63;41.29;93693.22;5033279;28;7163;-62
2023/04/20 02:48:54;;;;;;;;;;;;;;;26.63;41.03;93686.94;5031663;28;7134;-63
2023/04/20 02:51:20;;;;;;;;;;;;;;;26.63;40.61;93695.22;5042573;28;9072;-62
2023/04/20 02:53:48;;;;;;;;;;;;;;;26.61;41.04;93689.50;5030444;28;7046;-62
2023/04/20 02:56:25;;;;;;;;;;;;;;;26.60;41.31;93677.00;5025467;28;7244;-62
2023/04/20 02:59:02;;;;;;;;;;;;;;;26.59;41.24;93667.22;5033890;28;8979;-63
2023/04/20 03:01:36;;;;;;;;;;;;;;;26.57;40.92;93667.78;5046755;28;9031;-62
2023/04/20 03:04:03;;;;;;;;;;;;;;;26.58;41.21;93679.53;5040774;28;9050;-62
2023/04/20 03:07:03;;;;;;;;;;;;;;;26.59;41.42;93681.78;5017342;28;8182;-62
2023/04/20 03:09:41;;;;;;;;;;;;;;;26.60;41.25;93672.22;5019461;28;7216;-62
2023/04/20 03:12:17;;;;;;;;;;;;;;;26.63;41.42;93675.91;5056333;28;7081;-62
2023/04/20 03:15:00;;;;;;;;;;;;;;;26.59;40.88;93678.25;5029601;28;9005;-62
2023/04/20 03:17:27;;;;;;;;;;;;;;;26.59;41.38;93675.50;5029604;28;7285;-62
2023/04/20 03:19:53;;;;;;;;;;;;;;;26.60;40.95;93677.00;5024821;28;7270;-62
2023/04/20 03:22:20;;;;;;;;;;;;;;;26.61;40.82;93681.22;5065552;28;7486;-62
2023/04/20 03:24:48;;;;;;;;;;;;;;;26.60;41.02;93674.97;5033346;28;7030;-62
2023/04/20 03:27:14;;;;;;;;;;;;;;;26.59;41.04;93662.47;5027702;28;9046;-62
2023/04/20 03:29:40;;;;;;;;;;;;;;;26.60;41.09;93657.69;5054837;28;8277;-62
2023/04/20 03:32:09;;;;;;;;;;;;;;;26.60;40.77;93660.47;5063839;28;7272;-62
2023/04/20 03:34:42;;;;;;;;;;;;;;;26.59;41.27;93656.94;5034053;28;9263;-62
2023/04/20 03:37:09;;;;;;;;;;;;;;;26.57;41.06;93656.00;5033285;28;6999;-62
2023/04/20 03:39:37;;;;;;;;;;;;;;;26.60;40.64;93666.69;5030697;28;7539;-62
2023/04/20 03:42:03;;;;;;;;;;;;;;;26.61;41.13;93661.91;5045829;28;6958;-62
2023/04/20 03:44:29;;;;;;;;;;;;;;;26.61;41.23;93661.91;5028435;28;8662;-62
2023/04/20 03:46:55;;;;;;;;;;;;;;;26.58;40.88;93658.22;5058683;28;7486;-62
2023/04/20 03:49:23;;;;;;;;;;;;;;;26.58;41.12;93660.97;5030306;28;9180;-62
2023/04/20 03:51:50;;;;;;;;;;;;;;;26.61;41.07;93667.44;5029814;28;7103;-62
2023/04/20 03:54:16;;;;;;;;;;;;;;;26.60;41.07;93661.19;5046070;28;7976;-62
2023/04/20 03:56:53;;;;;;;;;;;;;;;26.61;40.62;93651.63;5019192;28;9161;-62
2023/04/20 03:59:19;;;;;;;;;;;;;;;26.58;40.58;93640.91;5032457;28;7325;-63
2023/04/20 04:01:46;;;;;;;;;;;;;;;26.59;41.32;93647.94;5033555;28;9059;-62
2023/04/20 04:04:12;;;;;;;;;;;;;;;26.59;40.76;93642.41;5030328;28;8197;-62
2023/04/20 04:06:38;;;;;;;;;;;;;;;26.59;41.11;93640.41;5028587;28;9816;-62
2023/04/20 04:09:04;;;;;;;;;;;;;;;26.58;41.14;93638.91;5022342;28;9031;-63
2023/04/20 04:11:31;;;;;;;;;;;;;;;26.57;41.04;93656.00;5020478;28;9156;-62
2023/04/20 04:13:58;;;;;;;;;;;;;;;26.55;40.94;93653.78;5022131;28;8249;-62
2023/04/20 04:16:24;;;;;;;;;;;;;;;26.56;40.95;93655.25;5029341;28;9414;-62
2023/04/20 04:18:55;;;;;;;;;;;;;;;26.55;41.42;93656.53;5042450;28;7304;-63
2023/04/20 04:21:37;;;;;;;;;;;;;;;26.54;40.87;93649.53;5045108;28;7342;-62
2023/04/20 04:24:04;;;;;;;;;;;;;;;26.56;40.82;93646.22;5022749;28;7021;-62
2023/04/20 04:26:35;;;;;;;;;;;;;;;26.55;40.95;93636.50;5007684;28;7137;-62
2023/04/20 04:29:03;;;;;;;;;;;;;;;26.54;41.16;93635.00;5027054;28;7470;-62
2023/04/20 04:31:34;;;;;;;;;;;;;;;26.55;41.58;93648.25;5046023;28;8730;-62
2023/04/20 04:34:00;;;;;;;;;;;;;;;26.56;41.46;93651.75;5028307;28;7445;-62
2023/04/20 04:36:27;;;;;;;;;;;;;;;26.56;40.73;93657.25;5032440;28;9014;-62
2023/04/20 04:38:55;;;;;;;;;;;;;;;26.52;40.97;93643.81;5021236;28;9136;-63
2023/04/20 04:41:30;;;;;;;;;;;;;;;26.53;40.80;93628.00;5026308;28;9121;-62
2023/04/20 04:43:58;;;;;;;;;;;;;;;26.52;41.08;93627.25;5025995;28;7052;-63
2023/04/20 04:46:32;;;;;;;;;;;;;;;26.49;41.27;93631.06;5020656;28;7038;-62
2023/04/20 04:49:00;;;;;;;;;;;;;;;26.49;41.63;93633.13;5022604;28;8922;-62
2023/04/20 04:51:28;;;;;;;;;;;;;;;26.47;40.84;93630.88;5028182;28;7294;-62
2023/04/20 04:53:56;;;;;;;;;;;;;;;26.51;40.86;93630.56;5023714;28;7270;-62
2023/04/20 04:56:22;;;;;;;;;;;;;;;26.51;41.07;93625.78;5027840;28;7901;-63
2023/04/20 04:58:49;;;;;;;;;;;;;;;26.48;40.86;93620.59;5027859;28;7210;-63
2023/04/20 05:01:17;;;;;;;;;;;;;;;26.42;41.00;93617.97;5040860;28;7272;-62
2023/04/20 05:03:51;;;;;;;;;;;;;;;26.38;41.46;93612.00;5028261;28;9171;-62
2023/04/20 05:06:25;;;;;;;;;;;;;;;26.40;41.28;93617.00;5044117;28;7351;-62
2023/04/20 05:08:57;;;;;;;;;;;;;;;26.45;41.73;93610.63;5023355;28;7349;-63
2023/04/20 05:11:35;;;;;;;;;;;;;;;26.43;41.50;93616.69;5045412;28;7076;-62
2023/04/20 05:14:02;;;;;;;;;;;;;;;26.46;41.25;93621.13;5029686;28;7228;-62
2023/04/20 05:16:38;;;;;;;;;;;;;;;26.48;41.64;93623.34;5025729;28;7001;-62
2023/04/20 05:19:14;;;;;;;;;;;;;;;26.49;41.48;93627.59;5024161;28;9075;-62
2023/04/20 05:21:46;;;;;;;;;;;;;;;26.52;41.38;93616.22;5019960;28;9003;-62
2023/04/20 05:24:18;;;;;;;;;;;;;;;26.51;41.85;93609.22;5027591;28;9119;-62
2023/04/20 05:26:46;;;;;;;;;;;;;;;26.55;41.76;93617.94;5029667;28;9041;-61
2023/04/20 05:29:19;;;;;;;;;;;;;;;26.56;40.64;93615.88;5042586;28;8937;-63
2023/04/20 05:31:59;;;;;;;;;;;;;;;26.54;41.22;93610.16;5023482;28;9040;-63
2023/04/20 05:34:38;;;;;;;;;;;;;;;26.55;41.83;93611.66;5015855;28;7057;-63
2023/04/20 05:37:12;;;;;;;;;;;;;;;26.57;41.02;93611.88;5025876;28;9024;-63
2023/04/20 05:39:39;;;;;;;;;;;;;;;26.58;41.00;93605.06;5061709;28;9991;-63
2023/04/20 05:42:13;;;;;;;;;;;;;;;26.60;41.39;93602.53;5027978;28;7121;-62
2023/04/20 05:44:40;;;;;;;;;;;;;;;26.57;41.65;93611.88;5055455;28;9146;-63
2023/04/20 05:47:10;;;;;;;;;;;;;;;26.58;40.94;93625.13;5027115;28;9058;-63
2023/04/20 05:49:41;;;;;;;;;;;;;;;26.57;41.29;93633.94;5022484;28;7021;-63
2023/04/20 05:52:07;;;;;;;;;;;;;;;26.56;40.67;93629.69;5029728;28;7387;-63
2023/04/20 05:54:37;;;;;;;;;;;;;;;26.55;41.27;93622.69;5040336;28;9035;-64
2023/04/20 05:57:14;;;;;;;;;;;;;;;26.54;40.98;93619.19;5036782;28;8972;-62
2023/04/20 05:59:50;;;;;;;;;;;;;;;26.57;40.79;93622.91;5035254;28;9421;-63
2023/04/20 06:02:31;;;;;;;;;;;;;;;26.55;41.25;93617.19;5049070;28;8721;-63
2023/04/20 06:05:14;;;;;;;;;;;;;;;26.55;40.67;93620.69;5033119;28;9003;-63
2023/04/20 06:07:47;;;;;;;;;;;;;;;26.58;40.89;93625.13;5029379;28;7486;-63
2023/04/20 06:10:13;;;;;;;;;;;;;;;26.58;41.31;93629.88;5046994;28;7265;-63
2023/04/20 06:12:45;;;;;;;;;;;;;;;26.51;40.96;93620.25;5031517;28;8911;-62
2023/04/20 06:15:16;;;;;;;;;;;;;;;26.54;40.37;93624.72;5029351;28;7009;-63
2023/04/20 06:17:42;;;;;;;;;;;;;;;26.55;41.33;93614.41;5030588;28;9403;-62
2023/04/20 06:20:10;;;;;;;;;;;;;;;26.53;40.95;93614.22;5028511;28;7172;-62
2023/04/20 06:22:45;;;;;;;;;;;;;;;26.55;40.65;93619.94;5030398;28;10465;-62
2023/04/20 06:25:14;;;;;;;;;;;;;;;26.52;40.96;93638.28;5031794;28;7260;-63
2023/04/20 06:27:42;;;;;;;;;;;;;;;26.53;40.71;93639.03;5045272;28;7460;-62
2023/04/20 06:30:10;;;;;;;;;;;;;;;26.53;41.24;93628.75;5023899;28;8968;-63
2023/04/20 06:32:37;;;;;;;;;;;;;;;26.52;40.85;93624.50;5055246;28;8982;-63
2023/04/20 06:35:04;;;;;;;;;;;;;;;26.52;40.86;93629.28;5027582;28;7485;-62
2023/04/20 06:37:42;;;;;;;;;;;;;;;26.50;40.91;93629.06;5025172;28;9452;-62
2023/04/20 06:40:18;;;;;;;;;;;;;;;26.50;40.69;93618.03;5027866;28;7115;-63
2023/04/20 06:43:01;;;;;;;;;;;;;;;26.55;40.88;93619.94;5032216;28;9073;-63
2023/04/20 06:45:59;;;;;;;;;;;;;;;26.56;41.22;93629.69;5048056;28;8725;-63
2023/04/20 06:48:37;;;;;;;;;;;;;;;26.48;40.88;93637.88;4972269;28;9458;-63
2023/04/20 06:51:03;;;;;;;;;;;;;;;26.48;41.11;93628.88;4975470;28;9344;-63
2023/04/20 06:53:31;;;;;;;;;;;;;;;26.48;41.41;93617.84;4967694;28;7039;-63
2023/04/20 06:56:00;;;;;;;;;;;;;;;26.50;41.38;93607.75;4972054;28;7053;-63
2023/04/20 06:58:30;;;;;;;;;;;;;;;26.54;41.68;93623.97;4959545;28;7287;-63
2023/04/20 07:01:12;;;;;;;;;;;;;;;26.58;41.69;93630.63;4973409;28;7142;-63
2023/04/20 07:03:50;;;;;;;;;;;;;;;26.61;41.67;93621.28;4958198;28;7034;-63
2023/04/20 07:06:27;;;;;;;;;;;;;;;26.64;41.52;93622.25;4948057;28;7471;-63
2023/04/20 07:09:03;;;;;;;;;;;;;;;26.66;41.76;93614.16;4958024;28;7381;-63
2023/04/20 07:11:34;;;;;;;;;;;;;;;26.69;40.95;93621.34;4982860;28;9032;-63
2023/04/20 07:14:10;;;;;;;;;;;;;;;26.68;41.27;93623.41;4965850;28;9082;-63
2023/04/20 07:16:38;;;;;;;;;;;;;;;26.70;41.19;93620.09;4975384;28;9130;-63
2023/04/20 07:19:05;;;;;;;;;;;;;;;26.68;41.27;93611.63;4972081;28;9104;-63
2023/04/20 07:21:40;;;;;;;;;;;;;;;26.71;40.69;93611.28;4972320;28;9063;-63
2023/04/20 07:24:21;;;;;;;;;;;;;;;26.70;41.08;93620.09;4970086;28;7089;-63
2023/04/20 07:26:56;;;;;;;;;;;;;;;26.71;40.92;93621.56;5032336;28;6899;-64
2023/04/20 07:29:26;;;;;;;;;;;;;;;26.70;40.82;93620.84;5028453;28;7491;-64
2023/04/20 07:32:02;;;;;;;;;;;;;;;26.67;40.92;93618.41;5029500;28;9457;-64
2023/04/20 07:34:34;;;;;;;;;;;;;;;26.65;40.58;93632.00;5032441;28;7327;-64
2023/04/20 07:37:07;;;;;;;;;;;;;;;26.65;40.91;93620.94;5029663;28;7118;-63
2023/04/20 07:39:39;;;;;;;;;;;;;;;26.66;40.45;93622.44;5046531;28;7317;-63
2023/04/20 07:42:08;;;;;;;;;;;;;;;26.67;41.43;93621.16;5033195;28;9291;-63
2023/04/20 07:44:34;;;;;;;;;;;;;;;26.66;40.76;93625.97;5040958;28;8290;-63
2023/04/20 07:47:16;;;;;;;;;;;;;;;26.65;41.08;93632.00;5031808;28;9032;-63
2023/04/20 07:49:56;;;;;;;;;;;;;;;26.63;40.87;93618.75;5041161;28;9441;-63
2023/04/20 07:52:23;;;;;;;;;;;;;;;26.62;40.90;93622.03;5024884;28;9131;-63
2023/04/20 07:55:07;;;;;;;;;;;;;;;26.63;41.30;93618.00;5026404;28;9333;-63
2023/04/20 07:57:42;;;;;;;;;;;;;;;26.63;41.05;93618.00;5030411;28;8876;-63
2023/04/20 08:00:09;;;;;;;;;;;;;;;26.66;41.07;93614.16;5037178;28;7065;-63
2023/04/20 08:02:41;;;;;;;;;;;;;;;26.66;40.80;93630.72;5018524;28;9050;-63
2023/04/20 08:05:11;;;;;;;;;;;;;;;26.64;41.18;93633.28;5017947;28;7044;-63
2023/04/20 08:07:37;;;;;;;;;;;;;;;26.58;40.97;93621.59;5030970;28;7096;-63
2023/04/20 08:10:11;;;;;;;;;;;;;;;26.61;41.09;93626.06;5059029;28;7265;-62
2023/04/20 08:12:38;;;;;;;;;;;;;;;26.60;40.99;93621.84;5020772;28;9110;-63
2023/04/20 08:15:16;;;;;;;;;;;;;;;26.58;41.26;93619.59;5029077;28;7334;-63
2023/04/20 08:17:47;;;;;;;;;;;;;;;26.53;41.01;93609.44;5032753;28;7271;-63
2023/04/20 08:20:20;;;;;;;;;;;;;;;26.55;41.82;93617.19;5025821;28;7175;-63
2023/04/20 08:22:54;;;;;;;;;;;;;;;26.53;41.14;93614.97;5036605;28;7163;-62
2023/04/20 08:25:20;;;;;;;;;;;;;;;26.54;41.17;93612.94;5026781;28;7091;-63
2023/04/20 08:27:47;;;;;;;;;;;;;;;26.51;41.54;93614.00;5041406;28;7274;-63
2023/04/20 08:30:14;;;;;;;;;;;;;;;26.51;41.46;93611.25;5062344;28;7008;-62
2023/04/20 08:32:41;;;;;;;;;;;;;;;26.52;41.20;93607.97;5059324;28;9502;-62
2023/04/20 08:35:07;;;;;;;;;;;;;;;26.55;41.60;93606.91;5045504;28;9194;-63
2023/04/20 08:37:36;;;;;;;;;;;;;;;26.55;41.39;93606.91;5045886;28;7220;-63
2023/04/20 08:40:23;;;;;;;;;;;;;;;26.55;41.52;93608.91;5030714;28;9437;-62
2023/04/20 08:42:51;;;;;;;;;;;;;;;26.54;41.67;93607.41;5021284;28;8263;-63
2023/04/20 08:45:17;;;;;;;;;;;;;;;26.55;41.54;93614.41;5028626;28;7238;-63
2023/04/20 08:47:50;;;;;;;;;;;;;;;26.54;41.28;93610.16;5028576;28;8756;-63
2023/04/20 08:50:21;;;;;;;;;;;;;;;26.51;41.99;93608.50;5044228;28;7020;-62
2023/04/20 08:52:47;;;;;;;;;;;;;;;26.48;41.45;93598.53;5026595;28;8848;-63
2023/04/20 08:55:19;;;;;;;;;;;;;;;26.48;41.75;93598.53;5027022;28;9482;-62
2023/04/20 08:57:48;;;;;;;;;;;;;;;26.51;41.68;93600.22;5024349;28;7110;-62
2023/04/20 09:00:16;;;;;;;;;;;;;;;26.48;41.80;93587.50;5056254;28;7253;-62
2023/04/20 09:02:55;;;;;;;;;;;;;;;26.48;40.72;93587.50;5041806;28;8702;-64
2023/04/20 09:05:30;;;;;;;;;;;;;;;26.53;41.61;93589.41;5062501;28;8630;-64
2023/04/20 09:07:59;;;;;;;;;;;;;;;26.53;40.24;93590.16;5031136;28;7220;-64
2023/04/20 09:10:26;;;;;;;;;;;;;;;26.49;39.18;93583.47;5024831;28;7189;-64
2023/04/20 09:12:52;;;;;;;;;;;;;;;26.46;38.12;93574.25;5028021;28;9683;-64
2023/04/20 09:15:30;;;;;;;;;;;;;;;26.41;37.63;93582.63;5044309;28;7618;-62
2023/04/20 09:17:57;;;;;;;;;;;;;;;26.37;37.89;93571.19;5060214;28;7308;-63
2023/04/20 09:20:31;;;;;;;;;;;;;;;26.34;36.61;93575.03;5028126;28;7218;-63
2023/04/20 09:23:09;;;;;;;;;;;;;;;26.32;35.84;93574.84;5041585;28;7293;-63
2023/04/20 09:25:35;;;;;;;;;;;;;;;26.29;34.73;93581.41;5022932;28;9313;-63
2023/04/20 09:28:01;;;;;;;;;;;;;;;26.25;34.91;93569.97;5039263;28;7121;-63
2023/04/20 09:30:57;;;;;;;;;;;;;;;26.28;34.47;93574.41;5057394;28;6962;-60
2023/04/20 09:33:34;;;;;;;;;;;;;;;26.32;34.60;93577.59;4930136;28;7303;-63
2023/04/20 09:36:06;;;;;;;;;;;;;;;26.35;35.41;93568.25;4930776;28;7986;-63
2023/04/20 09:38:32;;;;;;;;;;;;;;;26.35;35.62;93568.25;4940298;28;7143;-63
2023/04/20 09:41:01;;;;;;;;;;;;;;;26.37;36.04;93571.94;4952228;28;7252;-62
2023/04/20 09:43:30;;;;;;;;;;;;;;;26.39;35.77;93574.16;4931783;28;7085;-62
2023/04/20 09:45:56;;;;;;;;;;;;;;;26.35;35.59;93569.00;4951532;28;7132;-62
2023/04/20 09:48:24;;;;;;;;;;;;;;;26.41;34.93;93571.59;4940259;28;8250;-62
2023/04/20 09:50:50;;;;;;;;;;;;;;;26.42;35.62;93573.09;4947670;28;8728;-62
2023/04/20 09:53:17;;;;;;;;;;;;;;;26.42;35.60;93573.84;4951089;28;7016;-62
2023/04/20 09:55:47;;;;;;;;;;;;;;;26.44;35.61;93581.56;4942655;28;8758;-62
2023/04/20 09:58:13;;;;;;;;;;;;;;;26.42;35.54;93579.38;4950117;28;7038;-62
2023/04/20 10:00:39;;;;;;;;;;;;;;;26.43;35.00;93586.34;4950404;28;8987;-62
2023/04/20 10:03:07;;;;;;;;;;;;;;;26.43;35.78;93580.09;4929303;29;8978;-64
2023/04/20 10:05:38;;;;;;;;;;;;;;;26.40;36.06;93573.66;4932823;28;9126;-64
2023/04/20 10:08:14;;;;;;;;;;;;;;;26.41;36.27;93580.63;4934607;28;7285;-64
2023/04/20 10:10:49;;;;;;;;;;;;;;;26.41;35.83;93577.88;5034465;28;7310;-64
2023/04/20 10:13:22;;;;;;;;;;;;;;;26.40;36.50;93575.66;5033461;28;7050;-64
2023/04/20 10:15:58;;;;;;;;;;;;;;;26.39;36.83;93568.66;5023664;28;7255;-65
2023/04/20 10:18:26;;;;;;;;;;;;;;;26.40;36.64;93570.16;5033010;28;9047;-64
2023/04/20 10:21:31;;;;;;;;;;;;;;;26.39;37.46;93574.16;5034915;28;7224;-64
2023/04/20 10:24:31;;;;;;;;;;;;;;;26.42;36.75;93570.34;4947786;28;7457;-64
2023/04/20 10:26:57;;;;;;;;;;;;;;;26.41;37.53;93566.84;4901206;29;8805;-64
2023/04/20 10:29:45;;;;;;;;;;;;;;;26.39;37.98;93563.13;4917325;29;9032;-64
2023/04/20 10:32:26;;;;;;;;;;;;;;;26.40;37.73;93570.88;4915967;29;9063;-64
2023/04/20 10:35:39;;;;;;;;;;;;;;;26.38;37.50;93561.66;4892622;29;8820;-64
2023/04/20 10:38:42;;;;;;;;;;;;;;;26.36;38.03;93564.22;4884630;29;7269;-64
2023/04/20 10:41:11;;;;;;;;;;;;;;;26.38;37.75;93562.38;4884041;29;7107;-65
2023/04/20 10:43:52;;;;;;;;;;;;;;;26.38;37.78;93562.38;4883392;29;7422;-64
2023/04/20 10:46:39;;;;;;;;;;;;;;;26.35;38.27;93557.22;4886047;29;7013;-65
2023/04/20 10:49:10;;;;;;;;;;;;;;;26.36;37.80;93562.19;4876622;29;8722;-64
2023/04/20 10:51:44;;;;;;;;;;;;;;;26.38;38.33;93556.16;4879595;29;7250;-65
2023/04/20 10:54:39;;;;;;;;;;;;;;;26.38;38.30;93562.38;4880458;29;9465;-65
2023/04/20 10:57:06;;;;;;;;;;;;;;;26.36;37.79;93564.22;4873414;28;7055;-65
2023/04/20 10:59:36;;;;;;;;;;;;;;;26.34;38.31;93555.75;4938128;28;7232;-65
2023/04/20 11:02:13;;;;;;;;;;;;;;;26.37;38.04;93560.19;4954280;28;7288;-65
2023/04/20 11:04:52;;;;;;;;;;;;;;;26.34;38.07;93547.47;4989745;28;6940;-64
2023/04/20 11:07:19;;;;;;;;;;;;;;;26.34;38.34;93545.44;4984538;28;8956;-65
2023/04/20 11:09:53;;;;;;;;;;;;;;;26.36;38.87;93542.88;4985740;28;6852;-65
2023/04/20 11:12:37;;;;;;;;;;;;;;;26.34;38.03;93528.19;4987276;28;7384;-65
2023/04/20 11:15:33;;;;;;;;;;;;;;;26.36;39.00;93544.91;5021609;28;7054;-65
2023/04/20 11:18:14;;;;;;;;;;;;;;;26.37;38.75;93551.91;5033360;28;9121;-65
2023/04/20 11:20:53;;;;;;;;;;;;;;;26.39;38.89;93546.59;5033445;28;9356;-65
2023/04/20 11:23:22;;;;;;;;;;;;;;;26.33;38.29;93541.22;5029247;28;7840;-65
2023/04/20 11:25:57;;;;;;;;;;;;;;;26.35;38.13;93548.94;5038926;28;9040;-65
2023/04/20 11:28:33;;;;;;;;;;;;;;;26.35;38.23;93552.44;5021363;28;9357;-65
2023/04/20 11:31:15;;;;;;;;;;;;;;;26.36;38.12;93553.19;5031920;28;7159;-65
2023/04/20 11:33:51;;;;;;;;;;;;;;;26.37;38.70;93546.38;5029259;28;7591;-65
2023/04/20 11:36:23;;;;;;;;;;;;;;;26.33;38.56;93543.22;5028648;28;7253;-64
2023/04/20 11:38:51;;;;;;;;;;;;;;;26.34;38.44;93541.97;5026427;28;7265;-64
2023/04/20 11:41:32;;;;;;;;;;;;;;;26.29;38.55;93538.06;5030628;28;7401;-65
2023/04/20 11:44:05;;;;;;;;;;;;;;;26.30;38.76;93538.78;5040765;28;8657;-65
2023/04/20 11:47:00;;;;;;;;;;;;;;;26.32;38.84;93541.75;5028753;28;8939;-65
2023/04/20 11:49:35;;;;;;;;;;;;;;;26.31;38.54;93543.03;4957656;28;9466;-63
2023/04/20 11:52:02;;;;;;;;;;;;;;;26.35;38.82;93546.19;4967865;28;9033;-64
2023/04/20 11:54:39;;;;;;;;;;;;;;;26.36;39.29;93553.91;4975693;28;9043;-64
2023/04/20 11:57:07;;;;;;;;;;;;;;;26.38;38.62;93545.84;4971935;28;7496;-64
2023/04/20 12:00:05;;;;;;;;;;;;;;;26.36;39.42;93536.66;4976577;28;7102;-65
2023/04/20 12:02:32;;;;;;;;;;;;;;;26.32;38.69;93536.97;4952369;28;8967;-63
2023/04/20 12:05:21;;;;;;;;;;;;;;;26.30;39.24;93547.03;4953283;28;7146;-64
2023/04/20 12:08:01;;;;;;;;;;;;;;;26.31;38.84;93549.28;4951502;28;7087;-65
2023/04/20 12:10:57;;;;;;;;;;;;;;;26.34;38.79;93553.00;4952561;28;9091;-63
2023/04/20 12:13:36;;;;;;;;;;;;;;;26.40;39.69;93548.09;4899935;29;7307;-64
2023/04/20 12:16:05;;;;;;;;;;;;;;;26.40;38.80;93545.31;4905087;29;9468;-64
2023/04/20 12:18:51;;;;;;;;;;;;;;;26.41;39.19;93538.53;4917641;29;8884;-63
2023/04/20 12:21:23;;;;;;;;;;;;;;;26.39;39.57;93535.56;4922463;29;7431;-64
2023/04/20 12:23:50;;;;;;;;;;;;;;;26.40;38.92;93540.56;4911040;29;9216;-63
2023/04/20 12:26:20;;;;;;;;;;;;;;;26.41;38.70;93539.28;4919746;28;7319;-63
2023/04/20 12:28:46;;;;;;;;;;;;;;;26.42;39.09;93546.28;4969092;28;9004;-64
2023/04/20 12:31:27;;;;;;;;;;;;;;;26.44;39.10;93542.97;4927709;28;7030;-64
2023/04/20 12:34:06;;;;;;;;;;;;;;;26.43;38.85;93542.22;4946889;28;7401;-64
2023/04/20 12:37:06;;;;;;;;;;;;;;;26.44;38.58;93545.72;4950943;28;8758;-64
2023/04/20 12:39:32;;;;;;;;;;;;;;;26.43;39.22;93541.47;4963533;28;7610;-64
2023/04/20 12:42:10;;;;;;;;;;;;;;;26.42;38.78;93545.53;4951976;28;9112;-64
2023/04/20 12:44:40;;;;;;;;;;;;;;;26.39;39.33;93549.34;4949144;28;7301;-64
2023/04/20 12:47:08;;;;;;;;;;;;;;;26.38;39.27;93553.41;4939566;28;7041;-64
2023/04/20 12:49:34;;;;;;;;;;;;;;;26.40;38.99;93554.34;4999327;28;7127;-64
2023/04/20 12:52:00;;;;;;;;;;;;;;;26.41;38.83;93560.59;5029465;28;9277;-64
2023/04/20 12:54:27;;;;;;;;;;;;;;;26.41;38.82;93561.31;5026755;28;8792;-64
2023/04/20 12:56:53;;;;;;;;;;;;;;;26.46;39.45;93568.00;5042432;28;7416;-63
2023/04/20 12:59:30;;;;;;;;;;;;;;;26.43;38.90;93575.31;5028375;28;7287;-63
2023/04/20 13:02:12;;;;;;;;;;;;;;;26.41;39.50;93582.63;5028233;28;7925;-63
2023/04/20 13:04:39;;;;;;;;;;;;;;;26.38;39.04;93587.19;5053543;28;7018;-63
2023/04/20 13:07:06;;;;;;;;;;;;;;;26.37;39.77;93588.50;4998194;28;7269;-64
2023/04/20 13:09:37;;;;;;;;;;;;;;;26.42;38.96;93592.41;5027890;28;7541;-64
2023/04/20 13:12:08;;;;;;;;;;;;;;;26.40;39.00;93598.47;5027113;28;9140;-63
2023/04/20 13:14:34;;;;;;;;;;;;;;;26.39;39.82;93593.47;5021202;28;7008;-64
2023/04/20 13:17:00;;;;;;;;;;;;;;;26.40;38.99;93586.69;5024563;28;7180;-64
2023/04/20 13:19:30;;;;;;;;;;;;;;;26.40;39.62;93584.69;5026759;28;7040;-64
2023/04/20 13:22:00;;;;;;;;;;;;;;;26.41;39.69;93588.91;5010856;28;7026;-64
2023/04/20 13:24:30;;;;;;;;;;;;;;;26.43;39.78;93594.63;5024861;28;7120;-64
2023/04/20 13:26:57;;;;;;;;;;;;;;;26.40;39.37;93595.72;5025443;28;7041;-64
2023/04/20 13:29:30;;;;;;;;;;;;;;;26.38;39.36;93592.00;5026630;28;9053;-64